Catania — V2GH3 — position and weather

sailwx.info

Track history (hours):
 
Tides and Currents Weather Stations Pressure Air Temp Water Temp Dewpoint Dewpoint Depression Visibility Wind Speed Wind Dir Waves Ship Positions

Catania

Last reported at 2018-Feb-19 16:00 UTC. Time now 2018-Feb-19 16:17 UTC.
Position N 53°40' W 000°13'.

Length 87 m.

Type: Cargo ship. MMSI: 203888028.

Date/timePositionNaut miles runAvg speedWind from/ knotsBaromVisibWave heightAir tempDewpointWater temp
2018-Feb-19 16:00N 53°40' W 000°13'510.8
2018-Feb-19 15:30N 53°37' W 000°06'346 7.7
2018-Feb-17 18:42N 57°41' E 007°10'2 9.8
2018-Feb-17 18:29N 57°43' E 007°13'5 9.7
2018-Feb-17 18:00N 57°45' E 007°20'5 9.8
2018-Feb-17 17:30N 57°49' E 007°27'5 9.4
2018-Feb-17 17:01N 57°52' E 007°34'5 9.7
2018-Feb-17 16:30N 57°54' E 007°41'5 9.9
2018-Feb-17 16:00N 57°58' E 007°49'2 4.9
2018-Feb-17 15:30N 57°60' E 007°48'5 9.5
2018-Feb-17 15:00N 57°58' E 007°40'5 9.1
2018-Feb-17 14:30N 57°58' E 007°31'4 7.1
2018-Feb-17 14:00N 58°01' E 007°29'0 0.0
2018-Feb-17 13:22N 58°01' E 007°29'0 0.0
2018-Feb-17 12:19N 58°01' E 007°29'0 0.0
2018-Feb-17 11:46N 58°01' E 007°29'0 0.0
2018-Feb-17 11:28N 58°01' E 007°29'0 0.0
2018-Feb-17 10:46N 58°01' E 007°29'0 0.0
2018-Feb-17 10:16N 58°01' E 007°29'0 0.0
2018-Feb-17 09:52N 58°01' E 007°29'0 0.0
2018-Feb-17 09:28N 58°01' E 007°29'0 0.0
2018-Feb-17 08:46N 58°01' E 007°29'0 0.0
2018-Feb-17 07:46N 58°01' E 007°29'0 0.0
2018-Feb-17 07:10N 58°01' E 007°29'0 0.0
2018-Feb-17 06:46N 58°01' E 007°29'0 0.0
2018-Feb-17 06:16N 58°01' E 007°29'0 0.0
2018-Feb-17 05:52N 58°01' E 007°29'0 0.0
2018-Feb-17 05:07N 58°01' E 007°29'0 0.0
2018-Feb-17 04:58N 58°01' E 007°29'0 0.0
2018-Feb-17 04:25N 58°01' E 007°29'0 0.0
2018-Feb-17 03:52N 58°01' E 007°29'0 0.0
2018-Feb-17 03:28N 58°01' E 007°29'0 0.0
2018-Feb-17 02:52N 58°01' E 007°29'0 0.0
2018-Feb-17 02:28N 58°01' E 007°29'0 0.0
2018-Feb-17 01:37N 58°01' E 007°29'0 0.0
2018-Feb-17 01:10N 58°01' E 007°29'0 0.0
2018-Feb-17 00:52N 58°01' E 007°29'0 0.0
2018-Feb-17 00:10N 58°01' E 007°29'0 0.0
2018-Feb-16 23:52N 58°01' E 007°29'0 0.0
2018-Feb-16 23:28N 58°01' E 007°29'0 0.0
2018-Feb-16 22:58N 58°01' E 007°29'0 0.0
2018-Feb-16 22:27N 58°01' E 007°29'0 0.0
2018-Feb-16 21:54N 58°01' E 007°29'0 0.0
2018-Feb-16 21:27N 58°01' E 007°29'0 0.0
2018-Feb-16 21:00N 58°01' E 007°29'0 0.0
2018-Feb-16 20:30N 58°01' E 007°29'0 0.0
2018-Feb-16 19:57N 58°01' E 007°29'0 0.0
2018-Feb-16 19:30N 58°01' E 007°29'0 0.0
2018-Feb-16 19:00N 58°01' E 007°29'0 0.0
2018-Feb-16 18:30N 58°01' E 007°29'0 0.0
2018-Feb-16 18:00N 58°01' E 007°29'0 0.0
2018-Feb-16 17:30N 58°01' E 007°29'0 0.0
2018-Feb-16 17:00N 58°01' E 007°29'0 0.0
2018-Feb-16 16:30N 58°01' E 007°29'0 0.0
2018-Feb-16 16:00N 58°01' E 007°29'0 0.0
2018-Feb-16 15:30N 58°01' E 007°29'0 0.0
2018-Feb-16 15:00N 58°01' E 007°29'0 0.0
2018-Feb-16 14:30N 58°01' E 007°29'0 0.0
2018-Feb-16 14:00N 58°01' E 007°29'0 0.0
2018-Feb-16 13:30N 58°01' E 007°29'0 0.0
2018-Feb-16 13:00N 58°01' E 007°29'0 0.0
2018-Feb-16 12:27N 58°01' E 007°29'0 0.0
2018-Feb-16 11:59N 58°01' E 007°29'0 0.0
2018-Feb-16 11:29N 58°01' E 007°29'0 0.0
2018-Feb-16 10:59N 58°01' E 007°29'0 0.0
2018-Feb-16 10:29N 58°01' E 007°29'0 0.0
2018-Feb-16 09:59N 58°01' E 007°29'0 0.0
2018-Feb-16 09:29N 58°01' E 007°29'0 0.0
2018-Feb-16 08:56N 58°01' E 007°29'0 0.0
2018-Feb-16 08:29N 58°01' E 007°29'0 0.0
2018-Feb-16 07:56N 58°01' E 007°29'0 0.0
2018-Feb-16 07:29N 58°01' E 007°29'0 0.0
2018-Feb-16 06:59N 58°01' E 007°29'0 0.0
2018-Feb-16 06:29N 58°01' E 007°29'0 0.0
2018-Feb-16 05:56N 58°01' E 007°29'0 0.0
2018-Feb-16 05:29N 58°01' E 007°29'0 0.0
2018-Feb-16 04:59N 58°01' E 007°29'0 0.0
2018-Feb-16 04:29N 58°01' E 007°29'0 0.0
2018-Feb-16 03:59N 58°01' E 007°29'0 0.0
2018-Feb-16 03:29N 58°01' E 007°29'0 0.0
2018-Feb-16 02:59N 58°01' E 007°29'0 0.0
2018-Feb-16 02:29N 58°01' E 007°29'0 0.0
2018-Feb-16 01:59N 58°01' E 007°29'0 0.0
2018-Feb-16 01:29N 58°01' E 007°29'0 0.0
2018-Feb-16 00:59N 58°01' E 007°29'0 0.0
2018-Feb-16 00:29N 58°01' E 007°29'0 0.0
2018-Feb-15 23:59N 58°01' E 007°29'0 0.0
2018-Feb-15 23:29N 58°01' E 007°29'0 0.0
2018-Feb-15 22:56N 58°01' E 007°29'0 0.0
2018-Feb-15 22:26N 58°01' E 007°29'0 0.0
2018-Feb-15 21:59N 58°01' E 007°29'0 0.0
2018-Feb-15 21:28N 58°01' E 007°29'0 0.0
2018-Feb-15 20:58N 58°01' E 007°29'0 0.0
2018-Feb-15 20:22N 58°01' E 007°29'0 0.0
2018-Feb-15 11:52N 58°01' E 007°29'0 0.0
2018-Feb-15 11:22N 58°01' E 007°29'0 0.0
2018-Feb-15 10:22N 58°01' E 007°29'0 0.0
2018-Feb-15 09:10N 58°01' E 007°29'0 0.0
2018-Feb-15 08:58N 58°01' E 007°29'0 0.0
2018-Feb-15 07:22N 58°01' E 007°29'0 0.0
2018-Feb-15 06:58N 58°01' E 007°29'0 0.0
2018-Feb-15 06:28N 58°01' E 007°29'0 0.0
2018-Feb-15 05:10N 58°01' E 007°29'0 0.0
2018-Feb-15 04:58N 58°01' E 007°29'0 0.0
2018-Feb-15 04:13N 58°01' E 007°29'0 0.0
2018-Feb-15 03:46N 58°01' E 007°29'0 0.0
2018-Feb-15 03:19N 58°01' E 007°29'0 0.0
2018-Feb-15 02:55N 58°01' E 007°29'0 0.0
2018-Feb-15 02:28N 58°01' E 007°29'0 0.0
2018-Feb-15 01:55N 58°01' E 007°29'0 0.0
2018-Feb-15 01:25N 58°01' E 007°29'0 0.0
2018-Feb-15 00:58N 58°01' E 007°29'0 0.0
2018-Feb-15 00:28N 58°01' E 007°29'0 0.0
2018-Feb-14 23:58N 58°01' E 007°29'0 0.0
2018-Feb-14 23:28N 58°01' E 007°29'0 0.0
2018-Feb-14 22:55N 58°01' E 007°29'0 0.0
2018-Feb-14 22:28N 58°01' E 007°29'0 0.0
2018-Feb-14 21:58N 58°01' E 007°29'0 0.0
2018-Feb-14 21:29N 58°01' E 007°29'0 0.0
2018-Feb-14 20:53N 58°01' E 007°29'0 0.0
2018-Feb-14 20:26N 58°01' E 007°29'0 0.0
2018-Feb-14 19:50N 58°01' E 007°29'0 0.0
2018-Feb-14 19:26N 58°01' E 007°29'0 0.0
2018-Feb-14 18:38N 58°01' E 007°29'0 0.0
2018-Feb-14 18:23N 58°01' E 007°29'0 0.0
2018-Feb-14 17:59N 58°01' E 007°29'0 0.0
2018-Feb-14 17:23N 58°01' E 007°29'0 0.0
2018-Feb-14 16:56N 58°01' E 007°29'0 0.0
2018-Feb-14 16:20N 58°01' E 007°29'0 0.0
2018-Feb-14 15:59N 58°01' E 007°29'0 0.0
2018-Feb-14 15:29N 58°01' E 007°29'0 0.0
2018-Feb-14 14:59N 58°01' E 007°29'0 0.0
2018-Feb-14 14:29N 58°01' E 007°29'0 0.0
2018-Feb-14 13:59N 58°01' E 007°29'0 0.0
2018-Feb-14 13:29N 58°01' E 007°29'0 0.0
2018-Feb-14 12:56N 58°01' E 007°29'0 0.0
2018-Feb-14 12:29N 58°01' E 007°29'0 0.0
2018-Feb-14 12:00N 58°01' E 007°29'0 0.0
2018-Feb-14 11:27N 58°01' E 007°29'0 0.0
2018-Feb-14 10:57N 58°01' E 007°29'0 0.0
2018-Feb-14 10:30N 58°01' E 007°29'0 0.0
2018-Feb-14 09:52N 58°01' E 007°29'0 0.0
2018-Feb-14 09:16N 58°01' E 007°29'0 0.0
2018-Feb-14 08:55N 58°01' E 007°29'0 0.0
2018-Feb-14 08:25N 58°01' E 007°29'0 0.0
2018-Feb-14 07:58N 58°01' E 007°29'0 0.0
2018-Feb-14 07:28N 58°01' E 007°29'0 0.0
2018-Feb-14 06:52N 58°01' E 007°29'0 0.0
2018-Feb-14 06:22N 58°01' E 007°29'0 0.0
2018-Feb-14 05:58N 58°01' E 007°29'0 0.0
2018-Feb-14 05:28N 58°01' E 007°29'0 0.0
2018-Feb-14 04:58N 58°01' E 007°29'0 0.0
2018-Feb-14 04:25N 58°01' E 007°29'0 0.0
2018-Feb-14 03:55N 58°01' E 007°29'0 0.0
2018-Feb-14 03:25N 58°01' E 007°29'0 0.0
2018-Feb-14 02:58N 58°01' E 007°29'0 0.0
2018-Feb-14 02:25N 58°01' E 007°29'0 0.0
2018-Feb-14 01:58N 58°01' E 007°29'0 0.0
2018-Feb-14 01:28N 58°01' E 007°29'0 0.1
2018-Feb-14 00:55N 58°01' E 007°29'0 0.1
2018-Feb-14 00:28N 58°01' E 007°29'0 0.0
2018-Feb-13 23:58N 58°01' E 007°29'0 0.0
2018-Feb-13 23:28N 58°01' E 007°29'0 0.0
2018-Feb-13 22:55N 58°01' E 007°29'0 0.0
2018-Feb-13 22:28N 58°01' E 007°29'0 0.0
2018-Feb-13 22:00N 58°01' E 007°29'0 0.0
2018-Feb-13 21:27N 58°01' E 007°29'0 0.0
2018-Feb-13 20:54N 58°01' E 007°29'0 0.0
2018-Feb-13 20:27N 58°01' E 007°29'0 0.0
2018-Feb-13 20:00N 58°01' E 007°29'0 0.0
2018-Feb-13 19:27N 58°01' E 007°29'0 0.0
2018-Feb-13 18:59N 58°01' E 007°29'0 0.0
2018-Feb-13 18:29N 58°01' E 007°29'0 0.0
2018-Feb-13 17:56N 58°01' E 007°29'0 0.0
2018-Feb-13 17:29N 58°01' E 007°29'0 0.0
2018-Feb-13 16:59N 58°01' E 007°29'0 0.0
2018-Feb-13 16:29N 58°01' E 007°29'0 0.0
2018-Feb-13 15:56N 58°01' E 007°29'0 0.0
2018-Feb-13 15:23N 58°01' E 007°29'0 0.0
2018-Feb-13 14:56N 58°01' E 007°29'0 0.0
2018-Feb-13 14:29N 58°01' E 007°29'0 0.0
2018-Feb-13 13:56N 58°01' E 007°29'0 0.0
2018-Feb-13 13:14N 58°01' E 007°29'0 0.0
2018-Feb-13 12:59N 58°01' E 007°29'0 0.0
2018-Feb-13 12:26N 58°01' E 007°29'0 0.0
2018-Feb-13 11:56N 58°01' E 007°29'0 0.0
2018-Feb-13 11:20N 58°01' E 007°29'0 0.0
2018-Feb-13 10:38N 58°01' E 007°29'0 0.0
2018-Feb-13 10:02N 58°01' E 007°29'0 0.0
2018-Feb-13 08:56N 58°01' E 007°29'0 0.0
2018-Feb-13 08:30N 58°01' E 007°29'1 2.3
2018-Feb-13 07:59N 57°60' E 007°29'3 6.9
2018-Feb-13 07:29N 57°57' E 007°31'510.0
2018-Feb-13 07:00N 57°57' E 007°40'510.3
2018-Feb-13 06:29N 57°60' E 007°49'5 9.9
2018-Feb-13 05:59N 58°01' E 007°58'5 9.5
2018-Feb-13 05:29N 58°03' E 008°06'3 5.2
2018-Feb-13 04:59N 58°04' E 008°11'2 4.2
2018-Feb-13 04:29N 58°03' E 008°14'2 4.3
2018-Feb-13 03:59N 58°01' E 008°18'2 4.1
2018-Feb-13 03:29N 58°01' E 008°21'2 4.0
2018-Feb-13 02:59N 58°00' E 008°25'3 7.0
2018-Feb-13 02:29N 58°00' E 008°32'2 4.8
2018-Feb-13 01:59N 57°59' E 008°35'67 6.5
2018-Feb-12 15:41N 57°47' E 010°39'2 5.5
2018-Feb-12 15:14N 57°47' E 010°44'1 5.1
2018-Feb-12 14:59N 57°46' E 010°45'4 7.6
2018-Feb-12 14:29N 57°42' E 010°46'4 7.4
2018-Feb-12 13:59N 57°39' E 010°42'4 7.6
2018-Feb-12 13:29N 57°38' E 010°35'0 0.1
2018-Feb-12 12:50N 57°38' E 010°35'0 0.0
2018-Feb-12 12:14N 57°38' E 010°35'0 0.1
2018-Feb-12 11:59N 57°38' E 010°35'0 0.0
2018-Feb-12 11:26N 57°38' E 010°35'0 0.1
2018-Feb-12 10:43N 57°38' E 010°35'0 0.1
2018-Feb-12 10:28N 57°38' E 010°35'0 0.1
2018-Feb-12 09:58N 57°38' E 010°35'0 0.1
2018-Feb-12 09:25N 57°38' E 010°35'2 0.0
2018-Feb-10 06:32N 57°40' E 010°37'1 7.3
2018-Feb-10 06:25N 57°40' E 010°38'8 6.6
2018-Feb-10 05:15N 57°47' E 010°45'2 6.5
2018-Feb-10 05:00N 57°47' E 010°42'4 6.9
2018-Feb-10 04:28N 57°47' E 010°35'4 7.6
2018-Feb-10 04:00N 57°46' E 010°29'  
Track history (hours):
 
Tides and Currents Weather Stations Pressure Air Temp Water Temp Dewpoint Dewpoint Depression Visibility Wind Speed Wind Dir Waves Ship Positions

Catania

Last reported at 2018-Feb-19 16:00 UTC. Time now 2018-Feb-19 16:17 UTC.
Position N 53°40' W 000°13'.

Length 87 m.

Type: Cargo ship. MMSI: 203888028.

Date/timePositionNaut miles runAvg speedWind from/ knotsBaromVisibWave heightAir tempDewpointWater temp
2018-Feb-19 16:00N 53°40' W 000°13'510.8
2018-Feb-19 15:30N 53°37' W 000°06'346 7.7
2018-Feb-17 18:42N 57°41' E 007°10'2 9.8
2018-Feb-17 18:29N 57°43' E 007°13'5 9.7
2018-Feb-17 18:00N 57°45' E 007°20'5 9.8
2018-Feb-17 17:30N 57°49' E 007°27'5 9.4
2018-Feb-17 17:01N 57°52' E 007°34'5 9.7
2018-Feb-17 16:30N 57°54' E 007°41'5 9.9
2018-Feb-17 16:00N 57°58' E 007°49'2 4.9
2018-Feb-17 15:30N 57°60' E 007°48'5 9.5
2018-Feb-17 15:00N 57°58' E 007°40'5 9.1
2018-Feb-17 14:30N 57°58' E 007°31'4 7.1
2018-Feb-17 14:00N 58°01' E 007°29'0 0.0
2018-Feb-17 13:22N 58°01' E 007°29'0 0.0
2018-Feb-17 12:19N 58°01' E 007°29'0 0.0
2018-Feb-17 11:46N 58°01' E 007°29'0 0.0
2018-Feb-17 11:28N 58°01' E 007°29'0 0.0
2018-Feb-17 10:46N 58°01' E 007°29'0 0.0
2018-Feb-17 10:16N 58°01' E 007°29'0 0.0
2018-Feb-17 09:52N 58°01' E 007°29'0 0.0
2018-Feb-17 09:28N 58°01' E 007°29'0 0.0
2018-Feb-17 08:46N 58°01' E 007°29'0 0.0
2018-Feb-17 07:46N 58°01' E 007°29'0 0.0
2018-Feb-17 07:10N 58°01' E 007°29'0 0.0
2018-Feb-17 06:46N 58°01' E 007°29'0 0.0
2018-Feb-17 06:16N 58°01' E 007°29'0 0.0
2018-Feb-17 05:52N 58°01' E 007°29'0 0.0
2018-Feb-17 05:07N 58°01' E 007°29'0 0.0
2018-Feb-17 04:58N 58°01' E 007°29'0 0.0
2018-Feb-17 04:25N 58°01' E 007°29'0 0.0
2018-Feb-17 03:52N 58°01' E 007°29'0 0.0
2018-Feb-17 03:28N 58°01' E 007°29'0 0.0
2018-Feb-17 02:52N 58°01' E 007°29'0 0.0
2018-Feb-17 02:28N 58°01' E 007°29'0 0.0
2018-Feb-17 01:37N 58°01' E 007°29'0 0.0
2018-Feb-17 01:10N 58°01' E 007°29'0 0.0
2018-Feb-17 00:52N 58°01' E 007°29'0 0.0
2018-Feb-17 00:10N 58°01' E 007°29'0 0.0
2018-Feb-16 23:52N 58°01' E 007°29'0 0.0
2018-Feb-16 23:28N 58°01' E 007°29'0 0.0
2018-Feb-16 22:58N 58°01' E 007°29'0 0.0
2018-Feb-16 22:27N 58°01' E 007°29'0 0.0
2018-Feb-16 21:54N 58°01' E 007°29'0 0.0
2018-Feb-16 21:27N 58°01' E 007°29'0 0.0
2018-Feb-16 21:00N 58°01' E 007°29'0 0.0
2018-Feb-16 20:30N 58°01' E 007°29'0 0.0
2018-Feb-16 19:57N 58°01' E 007°29'0 0.0
2018-Feb-16 19:30N 58°01' E 007°29'0 0.0
2018-Feb-16 19:00N 58°01' E 007°29'0 0.0
2018-Feb-16 18:30N 58°01' E 007°29'0 0.0
2018-Feb-16 18:00N 58°01' E 007°29'0 0.0
2018-Feb-16 17:30N 58°01' E 007°29'0 0.0
2018-Feb-16 17:00N 58°01' E 007°29'0 0.0
2018-Feb-16 16:30N 58°01' E 007°29'0 0.0
2018-Feb-16 16:00N 58°01' E 007°29'0 0.0
2018-Feb-16 15:30N 58°01' E 007°29'0 0.0
2018-Feb-16 15:00N 58°01' E 007°29'0 0.0
2018-Feb-16 14:30N 58°01' E 007°29'0 0.0
2018-Feb-16 14:00N 58°01' E 007°29'0 0.0
2018-Feb-16 13:30N 58°01' E 007°29'0 0.0
2018-Feb-16 13:00N 58°01' E 007°29'0 0.0
2018-Feb-16 12:27N 58°01' E 007°29'0 0.0
2018-Feb-16 11:59N 58°01' E 007°29'0 0.0
2018-Feb-16 11:29N 58°01' E 007°29'0 0.0
2018-Feb-16 10:59N 58°01' E 007°29'0 0.0
2018-Feb-16 10:29N 58°01' E 007°29'0 0.0
2018-Feb-16 09:59N 58°01' E 007°29'0 0.0
2018-Feb-16 09:29N 58°01' E 007°29'0 0.0
2018-Feb-16 08:56N 58°01' E 007°29'0 0.0
2018-Feb-16 08:29N 58°01' E 007°29'0 0.0
2018-Feb-16 07:56N 58°01' E 007°29'0 0.0
2018-Feb-16 07:29N 58°01' E 007°29'0 0.0
2018-Feb-16 06:59N 58°01' E 007°29'0 0.0
2018-Feb-16 06:29N 58°01' E 007°29'0 0.0
2018-Feb-16 05:56N 58°01' E 007°29'0 0.0
2018-Feb-16 05:29N 58°01' E 007°29'0 0.0
2018-Feb-16 04:59N 58°01' E 007°29'0 0.0
2018-Feb-16 04:29N 58°01' E 007°29'0 0.0
2018-Feb-16 03:59N 58°01' E 007°29'0 0.0
2018-Feb-16 03:29N 58°01' E 007°29'0 0.0
2018-Feb-16 02:59N 58°01' E 007°29'0 0.0
2018-Feb-16 02:29N 58°01' E 007°29'0 0.0
2018-Feb-16 01:59N 58°01' E 007°29'0 0.0
2018-Feb-16 01:29N 58°01' E 007°29'0 0.0
2018-Feb-16 00:59N 58°01' E 007°29'0 0.0
2018-Feb-16 00:29N 58°01' E 007°29'0 0.0
2018-Feb-15 23:59N 58°01' E 007°29'0 0.0
2018-Feb-15 23:29N 58°01' E 007°29'0 0.0
2018-Feb-15 22:56N 58°01' E 007°29'0 0.0
2018-Feb-15 22:26N 58°01' E 007°29'0 0.0
2018-Feb-15 21:59N 58°01' E 007°29'0 0.0
2018-Feb-15 21:28N 58°01' E 007°29'0 0.0
2018-Feb-15 20:58N 58°01' E 007°29'0 0.0
2018-Feb-15 20:22N 58°01' E 007°29'0 0.0
2018-Feb-15 11:52N 58°01' E 007°29'0 0.0
2018-Feb-15 11:22N 58°01' E 007°29'0 0.0
2018-Feb-15 10:22N 58°01' E 007°29'0 0.0
2018-Feb-15 09:10N 58°01' E 007°29'0 0.0
2018-Feb-15 08:58N 58°01' E 007°29'0 0.0
2018-Feb-15 07:22N 58°01' E 007°29'0 0.0
2018-Feb-15 06:58N 58°01' E 007°29'0 0.0
2018-Feb-15 06:28N 58°01' E 007°29'0 0.0
2018-Feb-15 05:10N 58°01' E 007°29'0 0.0
2018-Feb-15 04:58N 58°01' E 007°29'0 0.0
2018-Feb-15 04:13N 58°01' E 007°29'0 0.0
2018-Feb-15 03:46N 58°01' E 007°29'0 0.0
2018-Feb-15 03:19N 58°01' E 007°29'0 0.0
2018-Feb-15 02:55N 58°01' E 007°29'0 0.0
2018-Feb-15 02:28N 58°01' E 007°29'0 0.0
2018-Feb-15 01:55N 58°01' E 007°29'0 0.0
2018-Feb-15 01:25N 58°01' E 007°29'0 0.0
2018-Feb-15 00:58N 58°01' E 007°29'0 0.0
2018-Feb-15 00:28N 58°01' E 007°29'0 0.0
2018-Feb-14 23:58N 58°01' E 007°29'0 0.0
2018-Feb-14 23:28N 58°01' E 007°29'0 0.0
2018-Feb-14 22:55N 58°01' E 007°29'0 0.0
2018-Feb-14 22:28N 58°01' E 007°29'0 0.0
2018-Feb-14 21:58N 58°01' E 007°29'0 0.0
2018-Feb-14 21:29N 58°01' E 007°29'0 0.0
2018-Feb-14 20:53N 58°01' E 007°29'0 0.0
2018-Feb-14 20:26N 58°01' E 007°29'0 0.0
2018-Feb-14 19:50N 58°01' E 007°29'0 0.0
2018-Feb-14 19:26N 58°01' E 007°29'0 0.0
2018-Feb-14 18:38N 58°01' E 007°29'0 0.0
2018-Feb-14 18:23N 58°01' E 007°29'0 0.0
2018-Feb-14 17:59N 58°01' E 007°29'0 0.0
2018-Feb-14 17:23N 58°01' E 007°29'0 0.0
2018-Feb-14 16:56N 58°01' E 007°29'0 0.0
2018-Feb-14 16:20N 58°01' E 007°29'0 0.0
2018-Feb-14 15:59N 58°01' E 007°29'0 0.0
2018-Feb-14 15:29N 58°01' E 007°29'0 0.0
2018-Feb-14 14:59N 58°01' E 007°29'0 0.0
2018-Feb-14 14:29N 58°01' E 007°29'0 0.0
2018-Feb-14 13:59N 58°01' E 007°29'0 0.0
2018-Feb-14 13:29N 58°01' E 007°29'0 0.0
2018-Feb-14 12:56N 58°01' E 007°29'0 0.0
2018-Feb-14 12:29N 58°01' E 007°29'0 0.0
2018-Feb-14 12:00N 58°01' E 007°29'0 0.0
2018-Feb-14 11:27N 58°01' E 007°29'0 0.0
2018-Feb-14 10:57N 58°01' E 007°29'0 0.0
2018-Feb-14 10:30N 58°01' E 007°29'0 0.0
2018-Feb-14 09:52N 58°01' E 007°29'0 0.0
2018-Feb-14 09:16N 58°01' E 007°29'0 0.0
2018-Feb-14 08:55N 58°01' E 007°29'0 0.0
2018-Feb-14 08:25N 58°01' E 007°29'0 0.0
2018-Feb-14 07:58N 58°01' E 007°29'0 0.0
2018-Feb-14 07:28N 58°01' E 007°29'0 0.0
2018-Feb-14 06:52N 58°01' E 007°29'0 0.0
2018-Feb-14 06:22N 58°01' E 007°29'0 0.0
2018-Feb-14 05:58N 58°01' E 007°29'0 0.0
2018-Feb-14 05:28N 58°01' E 007°29'0 0.0
2018-Feb-14 04:58N 58°01' E 007°29'0 0.0
2018-Feb-14 04:25N 58°01' E 007°29'0 0.0
2018-Feb-14 03:55N 58°01' E 007°29'0 0.0
2018-Feb-14 03:25N 58°01' E 007°29'0 0.0
2018-Feb-14 02:58N 58°01' E 007°29'0 0.0
2018-Feb-14 02:25N 58°01' E 007°29'0 0.0
2018-Feb-14 01:58N 58°01' E 007°29'0 0.0
2018-Feb-14 01:28N 58°01' E 007°29'0 0.1
2018-Feb-14 00:55N 58°01' E 007°29'0 0.1
2018-Feb-14 00:28N 58°01' E 007°29'0 0.0
2018-Feb-13 23:58N 58°01' E 007°29'0 0.0
2018-Feb-13 23:28N 58°01' E 007°29'0 0.0
2018-Feb-13 22:55N 58°01' E 007°29'0 0.0
2018-Feb-13 22:28N 58°01' E 007°29'0 0.0
2018-Feb-13 22:00N 58°01' E 007°29'0 0.0
2018-Feb-13 21:27N 58°01' E 007°29'0 0.0
2018-Feb-13 20:54N 58°01' E 007°29'0 0.0
2018-Feb-13 20:27N 58°01' E 007°29'0 0.0
2018-Feb-13 20:00N 58°01' E 007°29'0 0.0
2018-Feb-13 19:27N 58°01' E 007°29'0 0.0
2018-Feb-13 18:59N 58°01' E 007°29'0 0.0
2018-Feb-13 18:29N 58°01' E 007°29'0 0.0
2018-Feb-13 17:56N 58°01' E 007°29'0 0.0
2018-Feb-13 17:29N 58°01' E 007°29'0 0.0
2018-Feb-13 16:59N 58°01' E 007°29'0 0.0
2018-Feb-13 16:29N 58°01' E 007°29'0 0.0
2018-Feb-13 15:56N 58°01' E 007°29'0 0.0
2018-Feb-13 15:23N 58°01' E 007°29'0 0.0
2018-Feb-13 14:56N 58°01' E 007°29'0 0.0
2018-Feb-13 14:29N 58°01' E 007°29'0 0.0
2018-Feb-13 13:56N 58°01' E 007°29'0 0.0
2018-Feb-13 13:14N 58°01' E 007°29'0 0.0
2018-Feb-13 12:59N 58°01' E 007°29'0 0.0
2018-Feb-13 12:26N 58°01' E 007°29'0 0.0
2018-Feb-13 11:56N 58°01' E 007°29'0 0.0
2018-Feb-13 11:20N 58°01' E 007°29'0 0.0
2018-Feb-13 10:38N 58°01' E 007°29'0 0.0
2018-Feb-13 10:02N 58°01' E 007°29'0 0.0
2018-Feb-13 08:56N 58°01' E 007°29'0 0.0
2018-Feb-13 08:30N 58°01' E 007°29'1 2.3
2018-Feb-13 07:59N 57°60' E 007°29'3 6.9
2018-Feb-13 07:29N 57°57' E 007°31'510.0
2018-Feb-13 07:00N 57°57' E 007°40'510.3
2018-Feb-13 06:29N 57°60' E 007°49'5 9.9
2018-Feb-13 05:59N 58°01' E 007°58'5 9.5
2018-Feb-13 05:29N 58°03' E 008°06'3 5.2
2018-Feb-13 04:59N 58°04' E 008°11'2 4.2
2018-Feb-13 04:29N 58°03' E 008°14'2 4.3
2018-Feb-13 03:59N 58°01' E 008°18'2 4.1
2018-Feb-13 03:29N 58°01' E 008°21'2 4.0
2018-Feb-13 02:59N 58°00' E 008°25'3 7.0
2018-Feb-13 02:29N 58°00' E 008°32'2 4.8
2018-Feb-13 01:59N 57°59' E 008°35'67 6.5
2018-Feb-12 15:41N 57°47' E 010°39'2 5.5
2018-Feb-12 15:14N 57°47' E 010°44'1 5.1
2018-Feb-12 14:59N 57°46' E 010°45'4 7.6
2018-Feb-12 14:29N 57°42' E 010°46'4 7.4
2018-Feb-12 13:59N 57°39' E 010°42'4 7.6
2018-Feb-12 13:29N 57°38' E 010°35'0 0.1
2018-Feb-12 12:50N 57°38' E 010°35'0 0.0
2018-Feb-12 12:14N 57°38' E 010°35'0 0.1
2018-Feb-12 11:59N 57°38' E 010°35'0 0.0
2018-Feb-12 11:26N 57°38' E 010°35'0 0.1
2018-Feb-12 10:43N 57°38' E 010°35'0 0.1
2018-Feb-12 10:28N 57°38' E 010°35'0 0.1
2018-Feb-12 09:58N 57°38' E 010°35'0 0.1
2018-Feb-12 09:25N 57°38' E 010°35'2 0.0
2018-Feb-10 06:32N 57°40' E 010°37'1 7.3
2018-Feb-10 06:25N 57°40' E 010°38'8 6.6
2018-Feb-10 05:15N 57°47' E 010°45'2 6.5
2018-Feb-10 05:00N 57°47' E 010°42'4 6.9
2018-Feb-10 04:28N 57°47' E 010°35'4 7.6
2018-Feb-10 04:00N 57°46' E 010°29'  

Dump ship's entire track history